Weather at Ecuvillens Airport

Public forecast

Using degrees Celsius for public forecast. Weather courtesy of forecast.io.

Closest aviation weather report (METAR) to Ecuvillens Airport

Report is more than 6 hours old.

Closest report is Payerne Air Base, 8.5 nm (15.7 km) NW. Retrieved 2022/09/17 18:20 UTC (19 days ago):

LSMP 171820Z AUTO 01004KT 330V030 9999NDV NCD 10/04 Q1020 RMK

Closest aviation forecast (TAF) to Ecuvillens Airport

Forecast is more than 12 hours old.

Closest forecast is Payerne Air Base, 8.5 nm (15.7 km) NW. Retrieved 2022/09/17 17:00 UTC (19 days ago):

TAF LSMP 171625Z 1717/1823 VRB02KT 9999 FEW025